sensor_id;sensor_type;location;lat;lon;timestamp;pressure;altitude;pressure_sealevel;temperature;humidity
65557;BME280;52200;53.490;14.376;2022-07-29T00:01:06;102077.38;;;11.37;87.80
65557;BME280;52200;53.490;14.376;2022-07-29T00:03:32;102071.31;;;11.52;87.21
65557;BME280;52200;53.490;14.376;2022-07-29T00:05:57;102071.31;;;11.49;86.41
65557;BME280;52200;53.490;14.376;2022-07-29T00:08:23;102073.03;;;11.49;86.59
65557;BME280;52200;53.490;14.376;2022-07-29T00:10:48;102074.09;;;11.23;88.08
65557;BME280;52200;53.490;14.376;2022-07-29T00:13:14;102068.91;;;11.35;87.76
65557;BME280;52200;53.490;14.376;2022-07-29T00:15:39;102076.59;;;11.27;87.33
65557;BME280;52200;53.490;14.376;2022-07-29T00:18:05;102069.84;;;11.23;87.19
65557;BME280;52200;53.490;14.376;2022-07-29T00:20:30;102065.56;;;11.28;87.67
65557;BME280;52200;53.490;14.376;2022-07-29T00:22:56;102058.06;;;11.10;87.64
65557;BME280;52200;53.490;14.376;2022-07-29T00:25:22;102058.81;;;11.24;87.18
65557;BME280;52200;53.490;14.376;2022-07-29T00:27:47;102052.94;;;11.16;86.94
65557;BME280;52200;53.490;14.376;2022-07-29T00:30:13;102057.16;;;11.20;87.05
65557;BME280;52200;53.490;14.376;2022-07-29T00:32:39;102052.91;;;11.19;87.74
65557;BME280;52200;53.490;14.376;2022-07-29T00:35:05;102051.31;;;11.06;88.31
65557;BME280;52200;53.490;14.376;2022-07-29T00:37:49;102054.78;;;10.92;87.82
65557;BME280;52200;53.490;14.376;2022-07-29T00:40:14;102050.53;;;10.96;89.30
65557;BME280;52200;53.490;14.376;2022-07-29T00:42:45;102051.41;;;10.96;88.47
65557;BME280;52200;53.490;14.376;2022-07-29T00:45:12;102048.13;;;10.76;89.77
65557;BME280;52200;53.490;14.376;2022-07-29T00:47:38;102054.78;;;10.92;88.63
65557;BME280;52200;53.490;14.376;2022-07-29T00:50:05;102053.09;;;10.91;89.14
65557;BME280;52200;53.490;14.376;2022-07-29T00:52:33;102049.75;;;10.88;89.02
65557;BME280;52200;53.490;14.376;2022-07-29T00:54:59;102044.78;;;10.71;89.38
65557;BME280;52200;53.490;14.376;2022-07-29T00:57:24;102041.22;;;10.93;89.57
65557;BME280;52200;53.490;14.376;2022-07-29T00:59:50;102039.69;;;10.68;90.57
65557;BME280;52200;53.490;14.376;2022-07-29T01:02:16;102045.50;;;10.93;89.18
65557;BME280;52200;53.490;14.376;2022-07-29T01:04:41;102047.22;;;10.86;89.61
65557;BME280;52200;53.490;14.376;2022-07-29T01:07:07;102046.56;;;10.50;92.39
65557;BME280;52200;53.490;14.376;2022-07-29T01:09:34;102043.22;;;10.29;94.16
65557;BME280;52200;53.490;14.376;2022-07-29T01:12:01;102044.09;;;10.35;93.92
65557;BME280;52200;53.490;14.376;2022-07-29T01:14:28;102041.53;;;10.35;93.77
65557;BME280;52200;53.490;14.376;2022-07-29T01:17:26;102036.50;;;10.19;95.26
65557;BME280;52200;53.490;14.376;2022-07-29T01:25:54;102039.69;;;10.71;90.86
65557;BME280;52200;53.490;14.376;2022-07-29T01:31:10;102034.63;;;10.66;90.37
65557;BME280;52200;53.490;14.376;2022-07-29T01:33:43;102029.50;;;10.74;89.76
65557;BME280;52200;53.490;14.376;2022-07-29T01:36:27;102031.25;;;10.62;89.46
65557;BME280;52200;53.490;14.376;2022-07-29T01:39:04;102032.09;;;10.61;89.58
65557;BME280;52200;53.490;14.376;2022-07-29T01:41:32;102035.47;;;10.70;89.32
65557;BME280;52200;53.490;14.376;2022-07-29T01:44:06;102029.56;;;10.64;88.65
65557;BME280;52200;53.490;14.376;2022-07-29T01:46:38;102031.25;;;10.62;89.00
65557;BME280;52200;53.490;14.376;2022-07-29T01:49:17;102021.97;;;10.60;89.04
65557;BME280;52200;53.490;14.376;2022-07-29T01:51:58;102023.66;;;10.59;87.87
65557;BME280;52200;53.490;14.376;2022-07-29T01:54:30;102021.13;;;10.56;88.25
65557;BME280;52200;53.490;14.376;2022-07-29T01:56:59;102021.19;;;10.44;88.55
65557;BME280;52200;53.490;14.376;2022-07-29T01:59:26;102021.25;;;10.28;89.87
65557;BME280;52200;53.490;14.376;2022-07-29T02:01:54;102021.25;;;10.25;89.56
65557;BME280;52200;53.490;14.376;2022-07-29T02:04:21;102017.81;;;10.36;88.79
65557;BME280;52200;53.490;14.376;2022-07-29T02:06:49;102013.66;;;10.14;89.52
65557;BME280;52200;53.490;14.376;2022-07-29T02:09:17;102009.41;;;10.24;90.07
65557;BME280;52200;53.490;14.376;2022-07-29T02:11:48;102000.09;;;10.22;89.89
65557;BME280;52200;53.490;14.376;2022-07-29T02:14:18;102002.56;;;10.36;89.62
65557;BME280;52200;53.490;14.376;2022-07-29T02:16:44;102009.38;;;10.40;89.19
65557;BME280;52200;53.490;14.376;2022-07-29T02:19:12;102003.53;;;10.13;90.51
65557;BME280;52200;53.490;14.376;2022-07-29T02:21:40;102004.38;;;10.15;90.97
65557;BME280;52200;53.490;14.376;2022-07-29T02:24:09;102004.41;;;9.99;92.46
65557;BME280;52200;53.490;14.376;2022-07-29T02:26:38;101999.25;;;10.27;91.08
65557;BME280;52200;53.490;14.376;2022-07-29T02:29:06;101993.31;;;10.25;91.67
65557;BME280;52200;53.490;14.376;2022-07-29T02:31:35;101990.06;;;10.00;91.80
65557;BME280;52200;53.490;14.376;2022-07-29T02:34:05;101989.19;;;10.03;91.80
65557;BME280;52200;53.490;14.376;2022-07-29T02:36:32;101988.25;;;10.22;90.95
65557;BME280;52200;53.490;14.376;2022-07-29T02:38:59;101988.25;;;10.21;91.00
65557;BME280;52200;53.490;14.376;2022-07-29T02:41:33;101994.28;;;10.03;90.52
65557;BME280;52200;53.490;14.376;2022-07-29T02:44:09;101994.25;;;9.99;90.69
65557;BME280;52200;53.490;14.376;2022-07-29T02:46:36;101990.09;;;9.84;92.19
65557;BME280;52200;53.490;14.376;2022-07-29T02:49:35;101990.94;;;9.88;91.92
65557;BME280;52200;53.490;14.376;2022-07-29T02:52:04;101989.22;;;9.96;92.56
65557;BME280;52200;53.490;14.376;2022-07-29T02:57:09;101986.59;;;10.13;91.04
65557;BME280;52200;53.490;14.376;2022-07-29T02:59:36;101982.31;;;10.26;90.72
65557;BME280;52200;53.490;14.376;2022-07-29T03:02:07;101970.59;;;9.97;91.51
65557;BME280;52200;53.490;14.376;2022-07-29T03:04:34;101975.59;;;10.16;91.03
65557;BME280;52200;53.490;14.376;2022-07-29T03:07:00;101971.38;;;10.12;90.77
65557;BME280;52200;53.490;14.376;2022-07-29T03:09:27;101972.28;;;9.95;91.73
65557;BME280;52200;53.490;14.376;2022-07-29T03:11:54;101960.38;;;10.07;91.13
65557;BME280;52200;53.490;14.376;2022-07-29T03:14:20;101961.25;;;10.01;91.11
65557;BME280;52200;53.490;14.376;2022-07-29T03:16:48;101956.97;;;10.15;91.01
65557;BME280;52200;53.490;14.376;2022-07-29T03:19:15;101960.38;;;10.11;91.85
65557;BME280;52200;53.490;14.376;2022-07-29T03:21:41;101966.28;;;10.15;91.32
65557;BME280;52200;53.490;14.376;2022-07-29T03:24:06;101956.03;;;10.29;90.78
65557;BME280;52200;53.490;14.376;2022-07-29T03:26:32;101959.47;;;10.20;90.57
65557;BME280;52200;53.490;14.376;2022-07-29T03:28:57;101949.22;;;10.36;90.18
65557;BME280;52200;53.490;14.376;2022-07-29T03:31:23;101954.34;;;10.31;90.24
65557;BME280;52200;53.490;14.376;2022-07-29T03:33:48;101953.47;;;10.40;90.60
65557;BME280;52200;53.490;14.376;2022-07-29T03:36:14;101956.88;;;10.39;90.74
65557;BME280;52200;53.490;14.376;2022-07-29T03:38:42;101951.78;;;10.43;90.47
65557;BME280;52200;53.490;14.376;2022-07-29T03:41:10;101956.81;;;10.50;91.12
65557;BME280;52200;53.490;14.376;2022-07-29T03:43:38;101961.88;;;10.51;91.08
65557;BME280;52200;53.490;14.376;2022-07-29T03:46:07;101961.88;;;10.51;91.48
65557;BME280;52200;53.490;14.376;2022-07-29T03:48:36;101961.75;;;10.67;91.68
65557;BME280;52200;53.490;14.376;2022-07-29T03:51:05;101970.09;;;10.90;90.15
65557;BME280;52200;53.490;14.376;2022-07-29T03:53:31;101970.84;;;10.99;89.96
65557;BME280;52200;53.490;14.376;2022-07-29T03:55:59;101968.94;;;11.22;89.88
65557;BME280;52200;53.490;14.376;2022-07-29T03:58:27;101967.94;;;11.39;88.40
65557;BME280;52200;53.490;14.376;2022-07-29T04:00:54;101967.78;;;11.54;87.69
65557;BME280;52200;53.490;14.376;2022-07-29T04:03:20;101963.47;;;11.61;87.51
65557;BME280;52200;53.490;14.376;2022-07-29T04:05:58;101971.91;;;11.66;87.42
65557;BME280;52200;53.490;14.376;2022-07-29T04:08:23;101974.25;;;11.83;86.55
65557;BME280;52200;53.490;14.376;2022-07-29T04:10:49;101974.22;;;11.86;86.92
65557;BME280;52200;53.490;14.376;2022-07-29T04:13:15;101979.16;;;12.02;86.00
65557;BME280;52200;53.490;14.376;2022-07-29T04:15:40;101978.19;;;12.12;85.71
65557;BME280;52200;53.490;14.376;2022-07-29T04:18:05;101973.78;;;12.23;85.79
65557;BME280;52200;53.490;14.376;2022-07-29T04:20:31;101975.34;;;12.34;85.21
65557;BME280;52200;53.490;14.376;2022-07-29T04:22:56;101978.63;;;12.42;85.07
65557;BME280;52200;53.490;14.376;2022-07-29T04:25:22;101975.97;;;12.48;85.32
65557;BME280;52200;53.490;14.376;2022-07-29T04:27:48;101981.75;;;12.60;84.67
65557;BME280;52200;53.490;14.376;2022-07-29T04:30:25;101975.72;;;12.67;84.96
65557;BME280;52200;53.490;14.376;2022-07-29T04:32:51;101979.81;;;12.76;84.23
65557;BME280;52200;53.490;14.376;2022-07-29T04:35:18;101976.53;;;12.69;84.79
65557;BME280;52200;53.490;14.376;2022-07-29T04:37:44;101979.06;;;12.70;84.68
65557;BME280;52200;53.490;14.376;2022-07-29T04:40:10;101981.34;;;12.87;84.80
65557;BME280;52200;53.490;14.376;2022-07-29T04:42:35;101982.94;;;12.95;85.02
65557;BME280;52200;53.490;14.376;2022-07-29T04:45:01;101978.63;;;12.98;85.14
65557;BME280;52200;53.490;14.376;2022-07-29T04:47:26;101981.78;;;13.14;84.70
65557;BME280;52200;53.490;14.376;2022-07-29T04:49:52;101970.66;;;13.17;84.78
65557;BME280;52200;53.490;14.376;2022-07-29T04:52:17;101981.91;;;13.05;84.80
65557;BME280;52200;53.490;14.376;2022-07-29T04:54:43;101980.72;;;13.25;84.95
65557;BME280;52200;53.490;14.376;2022-07-29T04:57:08;101971.84;;;13.47;84.50
65557;BME280;52200;53.490;14.376;2022-07-29T04:59:33;101976.50;;;13.70;83.60
65557;BME280;52200;53.490;14.376;2022-07-29T05:01:59;101969.31;;;13.90;83.77
65557;BME280;52200;53.490;14.376;2022-07-29T05:04:24;101963.81;;;14.08;83.65
65557;BME280;52200;53.490;14.376;2022-07-29T05:06:50;101969.50;;;14.21;82.92
65557;BME280;52200;53.490;14.376;2022-07-29T05:09:15;101969.06;;;14.41;82.46
65557;BME280;52200;53.490;14.376;2022-07-29T05:11:41;101973.97;;;14.50;82.39
65557;BME280;52200;53.490;14.376;2022-07-29T05:14:06;101965.03;;;14.70;82.45
65557;BME280;52200;53.490;14.376;2022-07-29T05:16:32;101962.03;;;14.89;82.50
65557;BME280;52200;53.490;14.376;2022-07-29T05:18:57;101960.63;;;15.10;82.39
65557;BME280;52200;53.490;14.376;2022-07-29T05:21:22;101958.75;;;15.17;83.52
65557;BME280;52200;53.490;14.376;2022-07-29T05:23:48;101958.19;;;15.37;84.60
65557;BME280;52200;53.490;14.376;2022-07-29T05:26:13;101955.06;;;15.58;84.61
65557;BME280;52200;53.490;14.376;2022-07-29T05:28:39;101952.50;;;15.58;86.05
65557;BME280;52200;53.490;14.376;2022-07-29T05:31:04;101957.03;;;15.48;88.19
65557;BME280;52200;53.490;14.376;2022-07-29T05:33:30;101959.63;;;15.78;87.62
65557;BME280;52200;53.490;14.376;2022-07-29T05:35:55;101962.84;;;15.87;88.23
65557;BME280;52200;53.490;14.376;2022-07-29T05:38:21;101963.56;;;16.20;86.82
65557;BME280;52200;53.490;14.376;2022-07-29T05:40:47;101966.38;;;16.39;86.49
65557;BME280;52200;53.490;14.376;2022-07-29T05:43:13;101959.44;;;16.43;85.85
65557;BME280;52200;53.490;14.376;2022-07-29T05:45:38;101964.97;;;16.84;84.57
65557;BME280;52200;53.490;14.376;2022-07-29T05:48:04;101959.47;;;16.97;83.31
65557;BME280;52200;53.490;14.376;2022-07-29T05:50:29;101952.22;;;17.08;82.25
65557;BME280;52200;53.490;14.376;2022-07-29T05:52:55;101957.31;;;17.33;82.37
65557;BME280;52200;53.490;14.376;2022-07-29T05:55:20;101949.41;;;17.39;81.60
65557;BME280;52200;53.490;14.376;2022-07-29T05:57:46;101958.78;;;17.64;81.00
65557;BME280;52200;53.490;14.376;2022-07-29T06:00:12;101951.34;;;18.04;79.55
65557;BME280;52200;53.490;14.376;2022-07-29T06:02:37;101950.63;;;18.00;79.18
65557;BME280;52200;53.490;14.376;2022-07-29T06:05:03;101944.31;;;18.52;77.19
65557;BME280;52200;53.490;14.376;2022-07-29T06:07:29;101950.28;;;19.16;74.83
65557;BME280;52200;53.490;14.376;2022-07-29T06:09:54;101952.63;;;19.99;72.44
65557;BME280;52200;53.490;14.376;2022-07-29T06:12:20;101946.38;;;21.09;68.33
65557;BME280;52200;53.490;14.376;2022-07-29T06:14:45;101941.47;;;20.52;68.17
65557;BME280;52200;53.490;14.376;2022-07-29T06:17:10;101938.25;;;19.74;70.48
65557;BME280;52200;53.490;14.376;2022-07-29T06:19:37;101943.53;;;20.09;70.52
65557;BME280;52200;53.490;14.376;2022-07-29T06:22:03;101942.19;;;20.37;70.59
65557;BME280;52200;53.490;14.376;2022-07-29T06:24:29;101940.69;;;21.52;66.62
65557;BME280;52200;53.490;14.376;2022-07-29T06:26:54;101942.13;;;22.67;62.86
65557;BME280;52200;53.490;14.376;2022-07-29T06:29:20;101939.28;;;22.41;63.36
65557;BME280;52200;53.490;14.376;2022-07-29T06:31:45;101941.94;;;20.60;66.48
65557;BME280;52200;53.490;14.376;2022-07-29T06:34:11;101943.69;;;20.06;68.29
65557;BME280;52200;53.490;14.376;2022-07-29T06:36:37;101947.09;;;20.06;69.31
65557;BME280;52200;53.490;14.376;2022-07-29T06:39:06;101951.47;;;19.28;71.08
65557;BME280;52200;53.490;14.376;2022-07-29T06:41:32;101952.16;;;19.12;72.73
65557;BME280;52200;53.490;14.376;2022-07-29T06:43:58;101957.72;;;18.81;74.48
65557;BME280;52200;53.490;14.376;2022-07-29T06:46:24;101959.66;;;18.76;74.81
65557;BME280;52200;53.490;14.376;2022-07-29T06:48:50;101947.44;;;19.22;73.98
65557;BME280;52200;53.490;14.376;2022-07-29T06:51:16;101951.94;;;19.17;72.30
65557;BME280;52200;53.490;14.376;2022-07-29T06:53:42;101949.31;;;18.98;73.86
65557;BME280;52200;53.490;14.376;2022-07-29T06:56:07;101955.81;;;19.46;72.62
65557;BME280;52200;53.490;14.376;2022-07-29T06:58:34;101956.28;;;20.12;71.01
65557;BME280;52200;53.490;14.376;2022-07-29T07:01:04;101953.47;;;20.36;69.66
65557;BME280;52200;53.490;14.376;2022-07-29T07:03:31;101954.06;;;20.58;68.28
65557;BME280;52200;53.490;14.376;2022-07-29T07:05:56;101952.56;;;20.89;68.83
65557;BME280;52200;53.490;14.376;2022-07-29T07:08:22;101951.03;;;21.03;67.13
65557;BME280;52200;53.490;14.376;2022-07-29T07:10:49;101945.09;;;21.34;67.32
65557;BME280;52200;53.490;14.376;2022-07-29T07:13:14;101938.84;;;21.54;66.02
65557;BME280;52200;53.490;14.376;2022-07-29T07:15:42;101943.72;;;21.61;65.64
65557;BME280;52200;53.490;14.376;2022-07-29T07:18:08;101940.38;;;21.09;66.51
65557;BME280;52200;53.490;14.376;2022-07-29T07:20:34;101939.47;;;20.92;66.89
65557;BME280;52200;53.490;14.376;2022-07-29T07:23:00;101939.25;;;20.97;67.02
65557;BME280;52200;53.490;14.376;2022-07-29T07:25:25;101944.31;;;21.16;66.92
65557;BME280;52200;53.490;14.376;2022-07-29T07:27:51;101938.78;;;21.06;67.77
65557;BME280;52200;53.490;14.376;2022-07-29T07:30:16;101931.09;;;21.86;66.63
65557;BME280;52200;53.490;14.376;2022-07-29T07:32:42;101934.75;;;22.14;66.82
65557;BME280;52200;53.490;14.376;2022-07-29T07:35:09;101936.53;;;22.44;63.56
65557;BME280;52200;53.490;14.376;2022-07-29T07:37:35;101930.25;;;21.54;64.97
65557;BME280;52200;53.490;14.376;2022-07-29T07:40:01;101933.69;;;21.05;66.04
65557;BME280;52200;53.490;14.376;2022-07-29T07:42:27;101938.56;;;21.27;64.95
65557;BME280;52200;53.490;14.376;2022-07-29T07:44:53;101935.84;;;21.46;65.46
65557;BME280;52200;53.490;14.376;2022-07-29T07:47:18;101929.97;;;21.26;64.99
65557;BME280;52200;53.490;14.376;2022-07-29T07:49:52;101930.22;;;21.22;65.60
65557;BME280;52200;53.490;14.376;2022-07-29T07:52:20;101933.84;;;21.02;66.29
65557;BME280;52200;53.490;14.376;2022-07-29T07:54:46;101934.53;;;21.55;66.94
65557;BME280;52200;53.490;14.376;2022-07-29T07:57:12;101931.19;;;21.85;67.19
65557;BME280;52200;53.490;14.376;2022-07-29T07:59:38;101925.88;;;22.18;66.32
65557;BME280;52200;53.490;14.376;2022-07-29T08:02:04;101927.91;;;22.60;64.53
65557;BME280;52200;53.490;14.376;2022-07-29T08:04:30;101924.34;;;22.46;62.58
65557;BME280;52200;53.490;14.376;2022-07-29T08:06:56;101926.53;;;22.38;62.57
65557;BME280;52200;53.490;14.376;2022-07-29T08:09:24;101927.56;;;22.19;63.92
65557;BME280;52200;53.490;14.376;2022-07-29T08:11:50;101925.72;;;22.21;64.64
65557;BME280;52200;53.490;14.376;2022-07-29T08:14:16;101930.09;;;22.35;64.61
65557;BME280;52200;53.490;14.376;2022-07-29T08:16:41;101925.03;;;22.34;64.27
65557;BME280;52200;53.490;14.376;2022-07-29T08:19:08;101930.94;;;22.66;62.01
65557;BME280;52200;53.490;14.376;2022-07-29T08:21:34;101930.66;;;22.57;62.70
65557;BME280;52200;53.490;14.376;2022-07-29T08:24:03;101925.44;;;22.42;62.83
65557;BME280;52200;53.490;14.376;2022-07-29T08:26:47;101927.88;;;22.74;63.18
65557;BME280;52200;53.490;14.376;2022-07-29T08:29:12;101928.38;;;22.20;64.69
65557;BME280;52200;53.490;14.376;2022-07-29T08:31:40;101932.19;;;22.29;63.69
65557;BME280;52200;53.490;14.376;2022-07-29T08:34:06;101936.81;;;22.40;62.84
65557;BME280;52200;53.490;14.376;2022-07-29T08:36:32;101940.13;;;22.72;62.89
65557;BME280;52200;53.490;14.376;2022-07-29T08:38:59;101930.00;;;22.37;64.19
65557;BME280;52200;53.490;14.376;2022-07-29T08:41:25;101936.69;;;22.11;64.10
65557;BME280;52200;53.490;14.376;2022-07-29T08:43:51;101930.41;;;22.15;64.54
65557;BME280;52200;53.490;14.376;2022-07-29T08:46:19;101927.38;;;22.22;64.00
65557;BME280;52200;53.490;14.376;2022-07-29T08:48:45;101930.38;;;21.84;64.47
65557;BME280;52200;53.490;14.376;2022-07-29T08:51:16;101929.56;;;22.14;64.29
65557;BME280;52200;53.490;14.376;2022-07-29T08:53:44;101930.91;;;22.37;63.66
65557;BME280;52200;53.490;14.376;2022-07-29T08:56:16;101932.78;;;22.34;63.84
65557;BME280;52200;53.490;14.376;2022-07-29T08:58:43;101935.66;;;22.60;64.10
65557;BME280;52200;53.490;14.376;2022-07-29T09:01:10;101936.06;;;23.11;63.80
65557;BME280;52200;53.490;14.376;2022-07-29T09:03:37;101923.25;;;23.52;62.40
65557;BME280;52200;53.490;14.376;2022-07-29T09:06:05;101930.66;;;24.00;61.55
65557;BME280;52200;53.490;14.376;2022-07-29T09:08:32;101926.63;;;24.21;62.29
65557;BME280;52200;53.490;14.376;2022-07-29T09:10:58;101928.94;;;24.26;59.70
65557;BME280;52200;53.490;14.376;2022-07-29T09:13:25;101929.84;;;24.78;59.78
65557;BME280;52200;53.490;14.376;2022-07-29T09:15:50;101931.81;;;25.00;58.11
65557;BME280;52200;53.490;14.376;2022-07-29T09:18:38;101936.25;;;25.11;56.87
65557;BME280;52200;53.490;14.376;2022-07-29T09:21:05;101934.56;;;25.36;58.83
65557;BME280;52200;53.490;14.376;2022-07-29T09:24:08;101921.25;;;25.89;55.29
65557;BME280;52200;53.490;14.376;2022-07-29T09:26:42;101916.81;;;25.78;55.99
65557;BME280;52200;53.490;14.376;2022-07-29T09:29:13;101916.88;;;26.14;58.72
65557;BME280;52200;53.490;14.376;2022-07-29T09:31:41;101921.78;;;26.41;55.01
65557;BME280;52200;53.490;14.376;2022-07-29T09:34:07;101914.47;;;26.69;53.97
65557;BME280;52200;53.490;14.376;2022-07-29T09:36:41;101910.06;;;26.47;54.31
65557;BME280;52200;53.490;14.376;2022-07-29T09:39:07;101915.16;;;26.01;55.02
65557;BME280;52200;53.490;14.376;2022-07-29T09:41:51;101917.22;;;25.96;55.74
65557;BME280;52200;53.490;14.376;2022-07-29T09:44:20;101910.31;;;25.84;56.13
65557;BME280;52200;53.490;14.376;2022-07-29T09:47:01;101913.00;;;25.95;52.20
65557;BME280;52200;53.490;14.376;2022-07-29T09:49:35;101907.22;;;26.73;51.42
65557;BME280;52200;53.490;14.376;2022-07-29T09:52:09;101900.03;;;27.10;51.46
65557;BME280;52200;53.490;14.376;2022-07-29T09:54:36;101899.28;;;27.19;50.61
65557;BME280;52200;53.490;14.376;2022-07-29T09:57:07;101912.25;;;26.87;51.78
65557;BME280;52200;53.490;14.376;2022-07-29T09:59:34;101902.41;;;26.79;51.85
65557;BME280;52200;53.490;14.376;2022-07-29T10:02:01;101900.59;;;26.57;51.72
65557;BME280;52200;53.490;14.376;2022-07-29T10:04:46;101902.22;;;26.35;50.80
65557;BME280;52200;53.490;14.376;2022-07-29T10:07:12;101897.63;;;26.62;50.15
65557;BME280;52200;53.490;14.376;2022-07-29T10:09:38;101892.94;;;26.90;50.88
65557;BME280;52200;53.490;14.376;2022-07-29T10:12:06;101885.69;;;26.93;51.21
65557;BME280;52200;53.490;14.376;2022-07-29T10:14:32;101883.84;;;27.28;50.08
65557;BME280;52200;53.490;14.376;2022-07-29T10:16:59;101890.75;;;27.06;48.89
65557;BME280;52200;53.490;14.376;2022-07-29T10:19:27;101888.72;;;27.21;49.72
65557;BME280;52200;53.490;14.376;2022-07-29T10:21:53;101886.06;;;27.55;48.97
65557;BME280;52200;53.490;14.376;2022-07-29T10:24:19;101884.88;;;27.80;48.26
65557;BME280;52200;53.490;14.376;2022-07-29T10:26:46;101891.22;;;28.20;49.29
65557;BME280;52200;53.490;14.376;2022-07-29T10:29:13;101880.66;;;27.89;47.60
65557;BME280;52200;53.490;14.376;2022-07-29T10:43:17;101878.16;;;26.32;48.38
65557;BME280;52200;53.490;14.376;2022-07-29T10:45:47;101865.38;;;26.29;48.45
65557;BME280;52200;53.490;14.376;2022-07-29T10:48:13;101867.94;;;26.76;49.02
65557;BME280;52200;53.490;14.376;2022-07-29T10:51:05;101866.13;;;26.76;48.14
65557;BME280;52200;53.490;14.376;2022-07-29T10:53:53;101862.91;;;27.07;46.81
65557;BME280;52200;53.490;14.376;2022-07-29T10:56:27;101857.66;;;27.18;46.88
65557;BME280;52200;53.490;14.376;2022-07-29T11:01:43;101862.25;;;26.82;45.41
65557;BME280;52200;53.490;14.376;2022-07-29T11:04:09;101855.34;;;27.36;47.48
65557;BME280;52200;53.490;14.376;2022-07-29T11:09:32;101853.88;;;28.08;45.59
65557;BME280;52200;53.490;14.376;2022-07-29T11:11:57;101855.19;;;27.81;43.95
65557;BME280;52200;53.490;14.376;2022-07-29T11:17:23;101844.09;;;27.89;44.60
65557;BME280;52200;53.490;14.376;2022-07-29T11:19:48;101852.72;;;28.22;43.65
65557;BME280;52200;53.490;14.376;2022-07-29T11:22:33;101848.50;;;27.67;45.72
65557;BME280;52200;53.490;14.376;2022-07-29T11:25:28;101846.19;;;27.95;44.14
65557;BME280;52200;53.490;14.376;2022-07-29T11:28:09;101846.84;;;27.66;45.00
65557;BME280;52200;53.490;14.376;2022-07-29T11:30:51;101851.09;;;27.35;44.65
65557;BME280;52200;53.490;14.376;2022-07-29T11:33:30;101850.66;;;27.62;45.05
65557;BME280;52200;53.490;14.376;2022-07-29T11:36:15;101846.38;;;27.61;44.32
65557;BME280;52200;53.490;14.376;2022-07-29T11:38:41;101844.34;;;27.65;42.78
65557;BME280;52200;53.490;14.376;2022-07-29T11:41:23;101840.34;;;27.17;45.12
65557;BME280;52200;53.490;14.376;2022-07-29T11:43:56;101844.16;;;27.13;41.96
65557;BME280;52200;53.490;14.376;2022-07-29T11:46:43;101836.13;;;26.70;42.83
65557;BME280;52200;53.490;14.376;2022-07-29T11:49:09;101826.31;;;26.29;44.76
65557;BME280;52200;53.490;14.376;2022-07-29T11:51:39;101834.66;;;27.12;42.89
65557;BME280;52200;53.490;14.376;2022-07-29T11:54:08;101828.16;;;27.39;40.99
65557;BME280;52200;53.490;14.376;2022-07-29T11:56:38;101834.03;;;27.63;42.71
65557;BME280;52200;53.490;14.376;2022-07-29T11:59:09;101836.03;;;27.71;43.44
65557;BME280;52200;53.490;14.376;2022-07-29T12:01:35;101836.59;;;27.96;43.35
65557;BME280;52200;53.490;14.376;2022-07-29T12:04:05;101822.88;;;26.51;44.86
65557;BME280;52200;53.490;14.376;2022-07-29T12:06:32;101823.22;;;26.35;45.54
65557;BME280;52200;53.490;14.376;2022-07-29T12:08:57;101817.63;;;26.28;46.65
65557;BME280;52200;53.490;14.376;2022-07-29T12:11:23;101814.00;;;26.42;46.99
65557;BME280;52200;53.490;14.376;2022-07-29T12:13:50;101821.47;;;26.81;46.39
65557;BME280;52200;53.490;14.376;2022-07-29T12:16:15;101812.66;;;26.70;46.27
65557;BME280;52200;53.490;14.376;2022-07-29T12:18:41;101816.81;;;27.28;45.01
65557;BME280;52200;53.490;14.376;2022-07-29T12:21:06;101815.78;;;26.76;45.11
65557;BME280;52200;53.490;14.376;2022-07-29T12:23:33;101814.22;;;26.39;47.04
65557;BME280;52200;53.490;14.376;2022-07-29T12:25:59;101817.19;;;26.68;47.05
65557;BME280;52200;53.490;14.376;2022-07-29T12:28:25;101811.63;;;26.28;45.78
65557;BME280;52200;53.490;14.376;2022-07-29T12:30:51;101819.16;;;25.72;47.65
65557;BME280;52200;53.490;14.376;2022-07-29T12:35:46;101819.94;;;25.97;48.21
65557;BME280;52200;53.490;14.376;2022-07-29T12:38:13;101801.28;;;26.15;46.36
65557;BME280;52200;53.490;14.376;2022-07-29T12:40:39;101795.47;;;26.11;45.24
65557;BME280;52200;53.490;14.376;2022-07-29T12:43:10;101809.06;;;26.03;45.81
65557;BME280;52200;53.490;14.376;2022-07-29T12:45:38;101802.63;;;25.85;46.25
65557;BME280;52200;53.490;14.376;2022-07-29T12:48:05;101791.75;;;26.02;44.64
65557;BME280;52200;53.490;14.376;2022-07-29T12:50:34;101795.38;;;26.69;43.33
65557;BME280;52200;53.490;14.376;2022-07-29T12:53:11;101797.91;;;27.36;41.95
65557;BME280;52200;53.490;14.376;2022-07-29T12:55:45;101803.84;;;27.06;42.20
65557;BME280;52200;53.490;14.376;2022-07-29T12:58:28;101799.84;;;27.66;42.04
65557;BME280;52200;53.490;14.376;2022-07-29T13:01:00;101796.56;;;27.74;40.25
65557;BME280;52200;53.490;14.376;2022-07-29T13:03:25;101798.44;;;27.62;40.22
65557;BME280;52200;53.490;14.376;2022-07-29T13:05:51;101797.94;;;27.69;38.85
65557;BME280;52200;53.490;14.376;2022-07-29T13:08:17;101790.00;;;27.38;38.46
65557;BME280;52200;53.490;14.376;2022-07-29T13:10:46;101796.25;;;27.02;38.43
65557;BME280;52200;53.490;14.376;2022-07-29T13:13:15;101792.50;;;26.73;38.41
65557;BME280;52200;53.490;14.376;2022-07-29T13:15:43;101793.47;;;26.83;39.39
65557;BME280;52200;53.490;14.376;2022-07-29T13:18:28;101790.06;;;27.15;39.64
65557;BME280;52200;53.490;14.376;2022-07-29T13:20:54;101779.00;;;26.67;38.24